This is the latest recevied weather packets stored in our database for station/object N5YHM-13. If no packets are shown the sender has not sent any weather packets the latest 10 day(s).
| Time | Temp. | Humidity | Pressure | Rain* | Wind** | Luminosity | Snow |
|---|---|---|---|---|---|---|---|
| 1788115451 | 28.33° C | 88% | 1018.8 hPa | 0 mm | - | 166 W/m² | - |
| 1788115146 | 28.89° C | 88% | 1019.4 hPa | 0 mm | - | 39 W/m² | - |
| 1788114846 | 28.89° C | 89% | 1019 hPa | 0 mm | - | 19 W/m² | - |
| 1788114541 | 28.33° C | 88% | 1018.9 hPa | 0 mm | - | 155 W/m² | - |
| 1788114237 | 28.33° C | 88% | 1019.1 hPa | 0 mm | - | 30 W/m² | - |
| 1788113933 | 28.89° C | 86% | 1019.1 hPa | 0 mm | - | 28 W/m² | - |
| 1788113628 | 28.89° C | 89% | 1019.1 hPa | 0 mm | - | 33 W/m² | - |
| 1788113323 | 28.33° C | 92% | 1019.3 hPa | 0 mm | - | 106 W/m² | - |
| 1788113022 | 27.78° C | 94% | 1019.5 hPa | 0 mm | - | 64 W/m² | - |
| 1788112722 | 27.78° C | 95% | 1019.3 hPa | 0 mm | - | 93 W/m² | - |
| 1788112416 | 27.78° C | 95% | 1019.4 hPa | 0 mm | - | 25 W/m² | - |
| 1788112111 | 27.78° C | 95% | 1019.4 hPa | 0 mm | - | 19 W/m² | - |
| 1788111807 | 27.78° C | 97% | 1019.5 hPa | 0 mm | - | 9 W/m² | - |
| 1788111507 | 27.22° C | 96% | 1019.5 hPa | 0 mm | - | 23 W/m² | - |
| 1788111202 | 27.78° C | 93% | 1019.7 hPa | 0 mm | - | 52 W/m² | - |
| 1788110899 | 28.89° C | 91% | 1019.7 hPa | 0 mm | - | 16 W/m² | - |
| 1788110595 | 30° C | 84% | 1019.7 hPa | 0 mm | - | 15 W/m² | - |
| 1788110291 | 29.44° C | 88% | 1019.5 hPa | 0 mm | - | 23 W/m² | - |
| 1788109986 | 28.89° C | 87% | 1019.7 hPa | 0 mm | - | 18 W/m² | - |
| 1788109680 | 28.89° C | 87% | 1019.9 hPa | 0 mm | - | 12 W/m² | - |
| 1788109380 | 29.44° C | 86% | 1019.8 hPa | 0 mm | - | 15 W/m² | - |
| 1788109078 | 30° C | 83% | 1019.9 hPa | 0 mm | - | 18 W/m² | - |
| 1788108775 | 30.56° C | 80% | 1019.9 hPa | 0 mm | - | 15 W/m² | - |
| 1788108471 | 30° C | 81% | 1019.8 hPa | 0 mm | - | 19 W/m² | - |
| 1788108167 | 30° C | 81% | 1019.7 hPa | 0 mm | - | 21 W/m² | - |
* Rain latest hour (hover to see other rain measurements)
** Current wind speed in m/s (hover to see current wind gust speed)